createdAt,value
2023-10-10T00:02:29.356Z,77.18
2023-10-10T00:05:49.063Z,77.08
2023-10-10T00:17:08.035Z,77.60
2023-10-10T00:20:44.364Z,77.77
2023-10-10T00:25:01.146Z,77.94
2023-10-10T00:28:41.078Z,77.79
2023-10-10T00:31:17.686Z,77.86
2023-10-10T00:41:59.579Z,77.57
2023-10-10T00:46:01.531Z,77.43
2023-10-10T00:52:42.117Z,77.89
2023-10-10T00:57:03.758Z,78.20
2023-10-10T01:00:54.521Z,78.26
2023-10-10T01:04:13.477Z,77.97
2023-10-10T01:07:31.155Z,77.68
2023-10-10T01:11:18.692Z,77.57
2023-10-10T01:15:01.325Z,77.74
2023-10-10T01:17:52.260Z,77.99
2023-10-10T01:26:17.367Z,78.41
2023-10-10T01:30:01.252Z,78.47
2023-10-10T01:33:28.066Z,78.46
2023-10-10T01:37:54.632Z,78.53
2023-10-10T01:55:36.597Z,78.56
2023-10-10T01:58:32.045Z,78.46
2023-10-10T02:01:39.443Z,78.37
2023-10-10T02:04:58.387Z,78.31
2023-10-10T02:11:36.114Z,78.39
2023-10-10T02:14:52.030Z,78.47
2023-10-10T02:26:19.862Z,78.15
2023-10-10T02:29:50.872Z,77.92
2023-10-10T02:33:32.468Z,78.07
2023-10-10T02:40:36.642Z,78.53
2023-10-10T02:44:11.529Z,78.71
2023-10-10T02:47:59.138Z,78.67
2023-10-10T03:07:09.585Z,75.48
2023-10-10T03:10:17.338Z,74.40
2023-10-10T03:14:21.449Z,75.69
2023-10-10T03:18:15.975Z,76.45
2023-10-10T03:39:44.239Z,78.55
2023-10-10T03:46:12.764Z,78.75
2023-10-10T03:49:48.852Z,78.91
2023-10-10T03:54:29.208Z,79.09
2023-10-10T03:57:48.838Z,79.25
2023-10-10T04:01:30.344Z,79.32
2023-10-10T04:05:03.495Z,79.45
2023-10-10T04:08:40.804Z,79.30
2023-10-10T04:12:44.750Z,79.46
2023-10-10T04:16:26.711Z,79.41
2023-10-10T04:20:01.233Z,79.46
2023-10-10T04:23:52.335Z,79.55
2023-10-10T04:28:23.241Z,79.87
2023-10-10T04:34:26.844Z,79.92
2023-10-10T04:35:40.635Z,79.98
2023-10-10T04:40:02.933Z,79.99
2023-10-10T04:42:57.780Z,80.01
2023-10-10T04:46:49.970Z,80.07
2023-10-10T04:50:48.303Z,80.15
2023-10-10T04:54:09.737Z,80.24
2023-10-10T04:57:22.116Z,80.39
2023-10-10T05:00:38.469Z,80.20
2023-10-10T05:04:20.438Z,80.28
2023-10-10T05:07:13.484Z,80.38
2023-10-10T05:10:07.426Z,80.55
2023-10-10T05:12:59.254Z,80.49
2023-10-10T05:16:50.785Z,80.41
2023-10-10T05:20:42.636Z,80.61
2023-10-10T05:32:05.540Z,80.82
2023-10-10T06:08:52.727Z,76.43
2023-10-10T06:16:06.119Z,77.78
2023-10-10T06:23:37.173Z,78.68
2023-10-10T06:27:20.537Z,78.75
2023-10-10T06:38:18.045Z,78.95
2023-10-10T06:54:04.319Z,79.54
2023-10-10T06:57:29.607Z,79.47
2023-10-10T07:02:09.088Z,79.30
2023-10-10T07:09:59.604Z,79.31
2023-10-10T09:01:49.286Z,61.44
2023-10-10T09:05:49.996Z,60.77
2023-10-10T09:09:46.428Z,60.13
2023-10-10T09:13:48.792Z,60.06
2023-10-10T09:20:04.687Z,60.18
2023-10-10T10:02:40.791Z,55.42
2023-10-10T10:27:24.890Z,55.00
2023-10-10T10:30:45.769Z,54.88
2023-10-10T10:35:02.806Z,55.55
2023-10-10T10:44:18.573Z,54.87
2023-10-10T10:47:26.814Z,55.16
2023-10-10T10:51:04.294Z,55.21
2023-10-10T10:55:21.105Z,55.18
2023-10-10T11:06:14.477Z,55.27
2023-10-10T11:14:29.660Z,55.37
2023-10-10T11:18:27.448Z,55.44
2023-10-10T11:22:20.836Z,55.15
2023-10-10T11:26:45.077Z,55.34
2023-10-10T11:30:09.426Z,55.39
2023-10-10T11:33:32.185Z,55.33
2023-10-10T11:41:34.646Z,55.65
2023-10-10T11:44:34.828Z,55.50
2023-10-10T11:47:32.265Z,55.49
2023-10-10T11:51:03.340Z,55.94
2023-10-10T11:53:47.602Z,56.17
2023-10-10T11:56:36.305Z,56.07
2023-10-10T12:00:04.075Z,56.66
2023-10-10T12:04:21.007Z,56.96
2023-10-10T12:08:28.738Z,57.28
2023-10-10T12:15:36.063Z,57.57
2023-10-10T12:23:43.691Z,57.43
2023-10-10T12:28:45.548Z,57.40
2023-10-10T12:31:35.037Z,57.06
2023-10-10T12:34:52.438Z,57.00
2023-10-10T12:46:51.322Z,57.47
2023-10-10T12:50:52.109Z,58.09
2023-10-10T12:54:01.743Z,58.17
2023-10-10T13:15:20.881Z,58.56
2023-10-10T13:30:54.423Z,59.89
2023-10-10T13:35:58.984Z,60.36
2023-10-10T13:44:16.767Z,61.19
2023-10-10T13:48:30.687Z,61.53
2023-10-10T14:56:32.614Z,64.38
2023-10-10T14:59:32.130Z,64.66
2023-10-10T15:07:49.971Z,65.22
2023-10-10T15:15:26.731Z,65.94
2023-10-10T15:19:18.942Z,66.28
2023-10-10T15:31:02.955Z,66.97
2023-10-10T15:34:08.765Z,67.26
2023-10-10T15:38:01.726Z,67.57
2023-10-10T15:41:23.705Z,67.88
2023-10-10T15:44:06.355Z,68.06
2023-10-10T15:47:03.244Z,68.17
2023-10-10T15:49:51.670Z,68.52
2023-10-10T15:53:01.564Z,68.79
2023-10-10T15:56:27.110Z,69.08
2023-10-10T15:59:21.453Z,69.40
2023-10-10T16:02:36.674Z,69.86
2023-10-10T16:05:37.878Z,69.72
2023-10-10T16:08:53.433Z,69.88
2023-10-10T16:11:37.230Z,70.11
2023-10-10T16:14:46.135Z,70.45
2023-10-10T16:20:40.674Z,71.02
2023-10-10T16:23:28.095Z,71.07
2023-10-10T16:26:16.069Z,71.17
2023-10-10T16:29:52.318Z,71.29
2023-10-10T16:39:52.185Z,72.15
2023-10-10T16:43:00.945Z,72.27
2023-10-10T16:45:53.960Z,72.45
2023-10-10T16:48:52.039Z,72.54
2023-10-10T16:52:10.613Z,72.50
2023-10-10T16:58:44.361Z,72.84
2023-10-10T17:02:02.539Z,72.92
2023-10-10T17:04:50.835Z,73.00
2023-10-10T17:08:29.113Z,72.94
2023-10-10T17:12:31.243Z,73.09
2023-10-10T17:19:17.408Z,73.34
2023-10-10T17:22:27.385Z,73.33
2023-10-10T17:25:40.414Z,73.41
2023-10-10T17:28:29.653Z,73.42
2023-10-10T17:31:12.215Z,73.65
2023-10-10T17:34:10.461Z,73.83
2023-10-10T17:42:28.376Z,74.40
2023-10-10T17:46:54.992Z,74.50
2023-10-10T17:54:01.232Z,74.90
2023-10-10T17:57:09.506Z,74.79
2023-10-10T18:01:01.313Z,74.99
2023-10-10T18:14:07.129Z,75.33
2023-10-10T18:17:15.877Z,75.47
2023-10-10T18:20:16.652Z,75.54
2023-10-10T18:23:26.800Z,75.53
2023-10-10T18:26:27.483Z,75.51
2023-10-10T18:29:31.868Z,75.50
2023-10-10T18:32:43.477Z,75.86
2023-10-10T18:36:46.854Z,75.93
2023-10-10T18:39:20.644Z,76.02
2023-10-10T18:42:06.223Z,76.06
2023-10-10T18:45:09.567Z,76.02
2023-10-10T18:48:11.217Z,76.05
2023-10-10T18:51:27.049Z,76.01
2023-10-10T18:54:32.190Z,76.07
2023-10-10T18:57:14.605Z,75.97
2023-10-10T18:59:51.342Z,76.14
2023-10-10T19:02:34.546Z,76.25
2023-10-10T19:05:23.737Z,76.41
2023-10-10T19:08:34.562Z,76.49
2023-10-10T19:11:38.689Z,76.65
2023-10-10T19:14:15.982Z,76.55
2023-10-10T19:16:54.977Z,76.73
2023-10-10T19:19:28.362Z,76.84
2023-10-10T19:22:13.752Z,76.85
2023-10-10T19:25:24.377Z,76.81
2023-10-10T19:33:51.610Z,77.03
2023-10-10T19:37:14.340Z,77.25
2023-10-10T19:39:55.779Z,77.21
2023-10-10T19:42:30.899Z,77.14
2023-10-10T19:48:17.656Z,77.14
2023-10-10T19:50:56.761Z,77.15
2023-10-10T19:53:41.034Z,77.27
2023-10-10T19:56:26.425Z,77.51
2023-10-10T19:59:07.972Z,77.55
2023-10-10T20:01:53.086Z,77.56
2023-10-10T20:08:19.075Z,77.89
2023-10-10T20:10:52.414Z,77.93
2023-10-10T20:13:31.206Z,78.07
2023-10-10T20:16:29.869Z,78.05
2023-10-10T20:19:12.472Z,78.00
2023-10-10T20:21:53.974Z,78.10
2023-10-10T20:24:37.290Z,78.13
2023-10-10T20:27:29.007Z,78.25
2023-10-10T20:30:08.309Z,78.46
2023-10-10T20:32:46.406Z,78.37
2023-10-10T20:35:40.597Z,78.28
2023-10-10T20:38:29.051Z,78.45
2023-10-10T20:41:13.856Z,78.63
2023-10-10T20:43:46.674Z,78.52
2023-10-10T20:46:32.969Z,78.34
2023-10-10T20:53:02.940Z,78.48
2023-10-10T20:56:00.465Z,78.68
2023-10-10T20:58:45.587Z,78.71
2023-10-10T21:01:34.996Z,78.56
2023-10-10T21:04:25.982Z,78.59
2023-10-10T21:07:08.257Z,78.84
2023-10-10T21:09:42.837Z,78.97
2023-10-10T21:12:20.417Z,78.81
2023-10-10T21:15:22.743Z,78.98
2023-10-10T21:18:00.932Z,79.26
2023-10-10T21:20:42.060Z,79.13
2023-10-10T21:23:30.475Z,79.19
2023-10-10T21:26:28.771Z,79.38
2023-10-10T21:29:11.168Z,79.31
2023-10-10T21:31:51.768Z,79.39
2023-10-10T21:34:28.013Z,79.38
2023-10-10T21:37:07.974Z,79.51
2023-10-10T21:39:49.224Z,79.44
2023-10-10T21:42:26.266Z,79.40
2023-10-10T21:45:02.552Z,79.51
2023-10-10T21:47:42.864Z,79.29
2023-10-10T21:50:17.386Z,79.45
2023-10-10T21:52:54.932Z,79.42
2023-10-10T21:55:31.635Z,79.40
2023-10-10T21:58:08.057Z,79.41
2023-10-10T22:00:47.620Z,79.41
2023-10-10T22:03:25.129Z,79.44
2023-10-10T22:06:11.459Z,79.63
2023-10-10T22:08:45.537Z,79.70
2023-10-10T22:11:21.006Z,79.86
2023-10-10T22:13:55.417Z,79.72
2023-10-10T22:16:35.126Z,79.66
2023-10-10T22:19:22.059Z,79.73
2023-10-10T22:21:52.647Z,79.91
2023-10-10T22:24:24.302Z,79.64
2023-10-10T22:26:57.740Z,79.74
2023-10-10T22:29:31.483Z,79.78
2023-10-10T22:32:06.912Z,79.82
2023-10-10T22:34:49.326Z,79.68
2023-10-10T22:37:21.894Z,79.72
2023-10-10T22:40:19.464Z,79.67
2023-10-10T22:42:55.970Z,79.99
2023-10-10T22:45:51.741Z,79.72
2023-10-10T22:48:23.923Z,79.70
2023-10-10T22:51:11.390Z,79.90
2023-10-10T22:54:00.345Z,80.17
2023-10-10T22:56:37.696Z,80.16
2023-10-10T22:59:14.830Z,80.12
2023-10-10T23:01:51.014Z,80.32
2023-10-10T23:04:28.891Z,80.35
2023-10-10T23:07:05.374Z,80.18
2023-10-10T23:09:39.428Z,80.23
2023-10-10T23:12:18.813Z,80.48
2023-10-10T23:14:51.886Z,80.50
2023-10-10T23:17:27.697Z,80.33
2023-10-10T23:20:05.845Z,80.43
2023-10-10T23:22:38.528Z,80.42
2023-10-10T23:25:17.548Z,80.51
2023-10-10T23:28:05.189Z,80.59
2023-10-10T23:30:45.291Z,80.63
2023-10-10T23:33:18.366Z,80.64
2023-10-10T23:35:52.338Z,80.51
2023-10-10T23:38:30.628Z,80.68
2023-10-10T23:41:03.605Z,80.67
2023-10-10T23:43:38.701Z,80.81
2023-10-10T23:46:16.043Z,80.77
2023-10-10T23:48:48.968Z,80.79
2023-10-10T23:51:25.949Z,80.84
2023-10-10T23:54:00.052Z,80.93
2023-10-10T23:56:35.586Z,81.10
2023-10-10T23:59:24.297Z,80.95
